createdAt,value
2022-08-22T00:00:52.786Z,0.00
2022-08-22T00:01:52.824Z,0.00
2022-08-22T00:02:48.505Z,0.00
2022-08-22T00:02:54.492Z,0.00
2022-08-22T00:03:09.033Z,0.00
2022-08-22T00:03:15.374Z,0.00
2022-08-22T00:03:53.771Z,0.00
2022-08-22T00:04:55.759Z,0.00
2022-08-22T00:05:52.750Z,0.00
2022-08-22T00:06:52.729Z,0.00
2022-08-22T00:07:52.808Z,0.00
2022-08-22T00:08:52.788Z,0.00
2022-08-22T00:09:52.700Z,0.00
2022-08-22T00:10:52.689Z,0.00
2022-08-22T00:11:52.682Z,0.00
2022-08-22T00:12:52.714Z,0.00
2022-08-22T00:13:56.677Z,0.00
2022-08-22T00:14:52.643Z,0.00
2022-08-22T00:15:52.659Z,0.00
2022-08-22T00:16:53.453Z,0.00
2022-08-22T00:17:52.663Z,0.00
2022-08-22T00:18:52.602Z,0.00
2022-08-22T00:19:55.601Z,0.00
2022-08-22T00:20:52.623Z,0.00
2022-08-22T00:21:52.611Z,0.00
2022-08-22T00:22:52.574Z,0.00
2022-08-22T00:23:52.551Z,0.00
2022-08-22T00:24:52.544Z,0.00
2022-08-22T00:25:54.193Z,0.00
2022-08-22T00:26:52.552Z,0.00
2022-08-22T00:27:52.512Z,0.00
2022-08-22T00:28:52.538Z,0.00
2022-08-22T00:29:52.508Z,0.00
2022-08-22T00:30:52.485Z,0.00
2022-08-22T00:31:52.500Z,0.00
2022-08-22T00:32:52.465Z,0.00
2022-08-22T00:33:52.454Z,0.00
2022-08-22T00:34:55.435Z,0.00
2022-08-22T00:35:52.446Z,0.00
2022-08-22T00:36:52.430Z,0.00
2022-08-22T00:37:52.455Z,0.00
2022-08-22T00:38:52.396Z,0.00
2022-08-22T00:39:52.461Z,0.00
2022-08-22T00:40:52.371Z,0.00
2022-08-22T01:42:51.204Z,0.00
2022-08-22T01:45:26.901Z,0.00
2022-08-22T01:46:26.892Z,0.00
2022-08-22T01:47:26.871Z,0.00
2022-08-22T01:51:54.857Z,0.00
2022-08-22T01:58:28.538Z,0.00
2022-08-22T01:59:34.044Z,0.00
2022-08-22T02:00:34.756Z,0.00
2022-08-22T02:01:28.569Z,0.00
2022-08-22T02:02:28.452Z,0.00
2022-08-22T02:03:28.452Z,0.00
2022-08-22T02:04:28.430Z,0.00
2022-08-22T02:05:28.422Z,0.00
2022-08-22T02:06:28.412Z,0.00
2022-08-22T02:09:53.345Z,0.00
2022-08-22T02:13:18.187Z,0.00
2022-08-22T02:14:18.147Z,0.00
2022-08-22T02:17:58.850Z,0.00
2022-08-22T02:18:58.758Z,0.00
2022-08-22T02:19:58.762Z,0.00
2022-08-22T02:44:23.342Z,0.00
2022-08-22T02:45:23.330Z,0.00
2022-08-22T02:46:23.311Z,0.00
2022-08-22T02:47:23.293Z,0.00
2022-08-22T02:48:23.280Z,0.00
2022-08-22T02:49:23.259Z,0.00
2022-08-22T02:50:23.285Z,0.00
2022-08-22T02:51:23.271Z,0.00
2022-08-22T02:52:23.236Z,0.00
2022-08-22T02:53:23.221Z,0.00
2022-08-22T02:54:23.223Z,0.00
2022-08-22T02:55:23.202Z,0.00
2022-08-22T02:56:23.218Z,0.00
2022-08-22T02:57:26.289Z,0.00
2022-08-22T02:58:23.185Z,0.00
2022-08-22T02:59:23.165Z,0.00
2022-08-22T03:00:31.107Z,0.00
2022-08-22T03:01:23.157Z,0.00
2022-08-22T03:02:23.175Z,0.00
2022-08-22T03:03:23.114Z,0.00
2022-08-22T03:07:19.476Z,0.00
2022-08-22T03:08:26.505Z,0.00
2022-08-22T03:09:19.458Z,0.00
2022-08-22T03:11:57.125Z,0.00
2022-08-22T03:13:04.111Z,0.00
2022-08-22T03:14:04.204Z,0.00
2022-08-22T03:16:50.489Z,0.00
2022-08-22T03:17:50.466Z,0.00
2022-08-22T03:18:50.466Z,0.00
2022-08-22T03:19:50.506Z,0.00
2022-08-22T03:33:13.641Z,0.00
2022-08-22T03:34:13.612Z,0.00
2022-08-22T03:35:13.595Z,0.00
2022-08-22T03:36:13.583Z,0.00
2022-08-22T03:37:13.594Z,0.00
2022-08-22T03:38:13.562Z,0.00
2022-08-22T03:39:17.083Z,0.00
2022-08-22T03:40:13.598Z,0.00
2022-08-22T03:41:13.533Z,0.00
2022-08-22T03:42:13.544Z,0.00
2022-08-22T03:43:13.530Z,0.00
2022-08-22T03:44:13.509Z,0.00
2022-08-22T03:45:13.494Z,0.00
2022-08-22T03:46:17.848Z,0.00
2022-08-22T03:47:13.497Z,0.00
2022-08-22T03:48:13.485Z,0.00
2022-08-22T03:49:13.485Z,0.00
2022-08-22T03:50:13.436Z,0.00
2022-08-22T03:51:13.424Z,0.00
2022-08-22T03:52:13.420Z,0.00
2022-08-22T03:53:15.452Z,0.00
2022-08-22T03:54:13.394Z,0.00
2022-08-22T03:55:13.391Z,0.00
2022-08-22T03:56:13.389Z,0.00
2022-08-22T03:57:13.368Z,0.00
2022-08-22T03:58:16.325Z,0.00
2022-08-22T03:59:13.302Z,1.00
2022-08-22T04:00:13.281Z,1.00
2022-08-22T04:01:16.336Z,1.00
2022-08-22T04:02:42.134Z,2.00
2022-08-22T04:03:14.269Z,2.00
2022-08-22T04:04:13.237Z,1.00
2022-08-22T04:05:13.232Z,1.00
2022-08-22T04:06:13.210Z,2.00
2022-08-22T04:07:28.033Z,2.00
2022-08-22T04:08:14.192Z,8.00
2022-08-22T04:09:13.190Z,9.00
2022-08-22T04:10:13.181Z,8.00
2022-08-22T04:11:13.168Z,9.00
2022-08-22T04:12:13.160Z,9.00
2022-08-22T04:13:13.144Z,15.00
2022-08-22T04:14:13.144Z,14.00
2022-08-22T04:15:13.143Z,17.00
2022-08-22T04:16:16.102Z,23.00
2022-08-22T04:17:13.114Z,28.00
2022-08-22T04:18:13.083Z,30.00
2022-08-22T04:19:13.084Z,37.00
2022-08-22T04:20:13.102Z,44.00
2022-08-22T04:21:13.066Z,50.00
2022-08-22T04:22:13.054Z,64.00
2022-08-22T04:23:13.041Z,73.00
2022-08-22T04:24:13.027Z,79.00
2022-08-22T04:25:13.017Z,94.00
2022-08-22T04:26:13.021Z,108.00
2022-08-22T04:27:13.010Z,121.00
2022-08-22T04:28:12.986Z,138.00
2022-08-22T04:29:12.977Z,153.00
2022-08-22T04:30:12.969Z,174.00
2022-08-22T04:31:15.997Z,188.00
2022-08-22T04:32:14.763Z,207.00
2022-08-22T04:33:12.946Z,227.00
2022-08-22T04:34:12.937Z,248.00
2022-08-22T04:35:12.953Z,268.00
2022-08-22T04:36:12.897Z,295.00
2022-08-22T04:37:12.898Z,323.00
2022-08-22T04:38:12.971Z,356.00
2022-08-22T04:39:12.891Z,378.00
2022-08-22T04:40:12.903Z,414.00
2022-08-22T04:41:12.861Z,453.00
2022-08-22T04:42:31.633Z,484.00
2022-08-22T04:43:13.834Z,517.00
2022-08-22T04:44:13.425Z,558.00
2022-08-22T04:45:12.841Z,592.00
2022-08-22T04:46:15.800Z,633.00
2022-08-22T04:47:12.816Z,673.00
2022-08-22T04:48:12.771Z,714.00
2022-08-22T04:49:12.775Z,755.00
2022-08-22T04:50:12.761Z,794.00
2022-08-22T04:51:12.772Z,839.00
2022-08-22T04:52:12.734Z,881.00
2022-08-22T04:53:12.743Z,921.00
2022-08-22T04:54:12.715Z,966.00
2022-08-22T04:55:12.713Z,1011.00
2022-08-22T04:56:12.740Z,1054.00
2022-08-22T04:57:12.691Z,1094.00
2022-08-22T04:58:12.671Z,1135.00
2022-08-22T04:59:12.665Z,1171.00
2022-08-22T05:00:12.655Z,1214.00
2022-08-22T05:01:15.722Z,1249.00
2022-08-22T05:02:12.657Z,1279.00
2022-08-22T05:03:12.635Z,1311.00
2022-08-22T05:04:12.614Z,1342.00
2022-08-22T05:05:13.812Z,1367.00
2022-08-22T05:06:12.587Z,1396.00
2022-08-22T05:07:12.581Z,1418.00
2022-08-22T05:08:12.589Z,1441.00
2022-08-22T05:09:16.051Z,1461.00
2022-08-22T05:10:12.718Z,1477.00
2022-08-22T05:11:12.535Z,1492.00
2022-08-22T05:12:12.527Z,1508.00
2022-08-22T05:13:12.540Z,1533.00
2022-08-22T05:14:12.509Z,1568.00
2022-08-22T05:15:12.497Z,1603.00
2022-08-22T05:16:15.495Z,1639.00
2022-08-22T05:17:12.482Z,1674.00
2022-08-22T05:18:12.484Z,1709.00
2022-08-22T05:19:16.418Z,1741.00
2022-08-22T05:20:13.440Z,1778.00
2022-08-22T05:21:13.921Z,1815.00
2022-08-22T05:22:12.440Z,1848.00
2022-08-22T05:23:16.991Z,1888.00
2022-08-22T05:24:12.391Z,1923.00
2022-08-22T05:25:12.401Z,1960.00
2022-08-22T05:26:12.375Z,1989.00
2022-08-22T05:27:12.367Z,2024.00
2022-08-22T05:28:12.390Z,2053.00
2022-08-22T05:29:12.352Z,2081.00
2022-08-22T05:30:12.332Z,2107.00
2022-08-22T05:31:15.335Z,2134.00
2022-08-22T05:32:12.323Z,2158.00
2022-08-22T05:33:12.304Z,2183.00
2022-08-22T05:34:12.356Z,2205.00
2022-08-22T05:35:12.303Z,2227.00
2022-08-22T05:36:12.345Z,2247.00
2022-08-22T05:37:12.254Z,2272.00
2022-08-22T05:38:12.256Z,2293.00
2022-08-22T05:39:12.310Z,2314.00
2022-08-22T05:40:12.341Z,2339.00
2022-08-22T05:41:12.296Z,2359.00
2022-08-22T05:42:12.247Z,2376.00
2022-08-22T05:43:12.195Z,2398.00
2022-08-22T05:44:12.228Z,2416.00
2022-08-22T05:45:12.469Z,2434.00
2022-08-22T05:46:15.191Z,2450.00
2022-08-22T05:47:12.167Z,2473.00
2022-08-22T05:48:12.138Z,2501.00
2022-08-22T05:49:12.129Z,2519.00
2022-08-22T05:50:12.128Z,2539.00
2022-08-22T05:51:12.128Z,2557.00
2022-08-22T05:52:12.100Z,2579.00
2022-08-22T05:53:12.102Z,2599.00
2022-08-22T05:54:12.071Z,2619.00
2022-08-22T05:55:12.084Z,2640.00
2022-08-22T05:56:12.096Z,2660.00
2022-08-22T05:57:12.040Z,2680.00
2022-08-22T05:58:12.030Z,2700.00
2022-08-22T05:59:12.031Z,2716.00
2022-08-22T06:00:12.010Z,2733.00
2022-08-22T06:01:15.042Z,2753.00
2022-08-22T06:02:12.040Z,2770.00
2022-08-22T06:03:11.982Z,2787.00
2022-08-22T06:04:11.970Z,2800.00
2022-08-22T06:05:12.270Z,2818.00
2022-08-22T06:06:11.949Z,2835.00
2022-08-22T06:07:11.932Z,2847.00
2022-08-22T06:08:11.922Z,2863.00
2022-08-22T06:09:11.913Z,2879.00
2022-08-22T06:10:11.946Z,2893.00
2022-08-22T06:11:11.896Z,2910.00
2022-08-22T06:12:21.892Z,2925.00
2022-08-22T06:13:11.920Z,2941.00
2022-08-22T06:14:13.002Z,2956.00
2022-08-22T06:15:12.536Z,2968.00
2022-08-22T06:16:14.846Z,2986.00
2022-08-22T06:17:11.849Z,2999.00
2022-08-22T06:18:11.810Z,3016.00
2022-08-22T06:19:19.925Z,3035.00
2022-08-22T06:20:11.796Z,3054.00
2022-08-22T06:21:11.834Z,3076.00
2022-08-22T06:22:11.802Z,3098.00
2022-08-22T06:23:11.774Z,3116.00
2022-08-22T06:24:11.758Z,3132.00
2022-08-22T06:25:11.747Z,3150.00
2022-08-22T06:26:21.122Z,3167.00
2022-08-22T06:27:11.727Z,3182.00
2022-08-22T06:28:11.718Z,3193.00
2022-08-22T06:29:11.700Z,3202.00
2022-08-22T06:30:11.692Z,3215.00
2022-08-22T06:31:14.683Z,3222.00
2022-08-22T06:32:11.720Z,3233.00
2022-08-22T06:33:12.403Z,3243.00
2022-08-22T06:34:11.640Z,3254.00
2022-08-22T06:35:11.641Z,3272.00
2022-08-22T06:36:11.628Z,3294.00
2022-08-22T06:37:11.621Z,3302.00
2022-08-22T06:38:11.603Z,3309.00
2022-08-22T06:39:11.595Z,3319.00
2022-08-22T06:40:11.651Z,3329.00
2022-08-22T06:41:11.571Z,3337.00
2022-08-22T06:42:15.977Z,3347.00
2022-08-22T06:43:11.577Z,3359.00
2022-08-22T06:44:11.545Z,3374.00
2022-08-22T06:45:11.565Z,3389.00
2022-08-22T06:46:14.524Z,3402.00
2022-08-22T06:47:11.525Z,3420.00
2022-08-22T06:48:11.509Z,3437.00
2022-08-22T06:49:11.494Z,3451.00
2022-08-22T06:50:13.617Z,3467.00
2022-08-22T06:51:11.465Z,3486.00
2022-08-22T06:52:11.461Z,3504.00
2022-08-22T06:53:11.452Z,3529.00
2022-08-22T06:54:11.442Z,3555.00
2022-08-22T06:55:11.443Z,3612.00
2022-08-22T06:56:11.436Z,1223.00
2022-08-22T06:57:11.414Z,2464.00
2022-08-22T06:58:11.394Z,9327.00
2022-08-22T06:59:11.388Z,10406.00
2022-08-22T07:00:11.398Z,9698.00
2022-08-22T07:01:14.475Z,11205.00
2022-08-22T07:02:11.369Z,14023.00
2022-08-22T07:03:11.350Z,13275.00
2022-08-22T07:04:11.330Z,10903.00
2022-08-22T07:05:11.350Z,9805.00
2022-08-22T07:06:11.311Z,9661.00
2022-08-22T07:07:11.308Z,10512.00
2022-08-22T07:08:11.292Z,8251.00
2022-08-22T07:09:11.279Z,6400.00
2022-08-22T07:10:11.294Z,6523.00
2022-08-22T07:11:11.273Z,7226.00
2022-08-22T07:12:11.278Z,8055.00
2022-08-22T07:13:11.250Z,78847.00
2022-08-22T07:14:11.235Z,80687.00
2022-08-22T07:15:11.211Z,82910.00
2022-08-22T07:16:14.206Z,81994.00
2022-08-22T07:17:11.232Z,74823.00
2022-08-22T07:18:11.185Z,74842.00
2022-08-22T07:19:11.172Z,74934.00
2022-08-22T07:20:11.167Z,75063.00
2022-08-22T07:21:11.168Z,75271.00
2022-08-22T07:22:11.251Z,76121.00
2022-08-22T07:23:11.135Z,79360.00
2022-08-22T07:24:11.126Z,83481.00
2022-08-22T07:25:11.127Z,80928.00
2022-08-22T07:26:11.105Z,77305.00
2022-08-22T07:27:11.096Z,78575.00
2022-08-22T07:28:16.136Z,81273.00
2022-08-22T07:29:11.558Z,78682.00
2022-08-22T07:30:11.073Z,5824.00
2022-08-22T07:31:15.048Z,5619.00
2022-08-22T07:32:11.087Z,7871.00
2022-08-22T07:33:25.769Z,13174.00
2022-08-22T07:34:12.010Z,23068.00
2022-08-22T07:35:11.016Z,29196.00
2022-08-22T07:36:10.989Z,25488.00
2022-08-22T07:37:11.021Z,16234.00
2022-08-22T07:38:10.981Z,7769.00
2022-08-22T07:39:11.193Z,4028.00
2022-08-22T07:40:11.048Z,29634.00
2022-08-22T07:41:10.971Z,17824.00
2022-08-22T07:42:10.942Z,8632.00
2022-08-22T07:43:10.929Z,20458.00
2022-08-22T07:44:10.921Z,24162.00
2022-08-22T07:45:10.933Z,20246.00
2022-08-22T07:46:13.903Z,16159.00
2022-08-22T07:47:10.903Z,14847.00
2022-08-22T07:48:10.885Z,16890.00
2022-08-22T07:49:11.879Z,18386.00
2022-08-22T07:51:48.737Z,27877.00
2022-08-22T07:52:48.489Z,28500.00
2022-08-22T07:53:48.487Z,31347.00
2022-08-22T07:54:48.479Z,30825.00
2022-08-22T07:55:49.655Z,28552.00
2022-08-22T07:59:30.092Z,27995.00
2022-08-22T08:00:30.052Z,30265.00
2022-08-22T08:01:30.077Z,40888.00
2022-08-22T08:04:07.682Z,8416.00
2022-08-22T08:05:07.630Z,7848.00
2022-08-22T08:06:14.632Z,7444.00
2022-08-22T08:07:07.601Z,12742.00
2022-08-22T08:10:01.035Z,36142.00
2022-08-22T08:12:22.833Z,38593.00
2022-08-22T08:13:29.827Z,36996.00
2022-08-22T08:16:17.216Z,17436.00
2022-08-22T08:19:42.036Z,37263.00
2022-08-22T08:20:42.029Z,36860.00
2022-08-22T08:23:03.897Z,30821.00
2022-08-22T08:25:41.523Z,73827.00
2022-08-22T08:31:49.536Z,73838.00
2022-08-22T08:32:59.680Z,73946.00
2022-08-22T08:33:56.647Z,74195.00
2022-08-22T08:39:50.358Z,74565.00
2022-08-22T08:40:57.292Z,75732.00
2022-08-22T08:41:50.270Z,76372.00
2022-08-22T08:42:57.281Z,76136.00
2022-08-22T08:43:57.292Z,75674.00
2022-08-22T08:44:57.382Z,75326.00
2022-08-22T08:45:59.246Z,75262.00
2022-08-22T08:48:12.114Z,75625.00
2022-08-22T08:49:21.007Z,75668.00
2022-08-22T08:50:19.634Z,75303.00
2022-08-22T08:51:19.079Z,74781.00
2022-08-22T08:52:12.323Z,74993.00
2022-08-22T08:53:12.060Z,75834.00
2022-08-22T08:54:12.059Z,76303.00
2022-08-22T08:55:22.571Z,77068.00
2022-08-22T08:56:12.073Z,77890.00
2022-08-22T08:57:12.013Z,77877.00
2022-08-22T08:58:12.000Z,77437.00
2022-08-22T08:59:11.992Z,77502.00
2022-08-22T09:00:12.287Z,77833.00
2022-08-22T09:01:15.056Z,77610.00
2022-08-22T09:02:13.750Z,77035.00
2022-08-22T09:03:11.967Z,76872.00
2022-08-22T09:04:14.951Z,77579.00
2022-08-22T09:05:11.940Z,78895.00
2022-08-22T09:06:11.910Z,79326.00
2022-08-22T09:07:11.905Z,78537.00
2022-08-22T09:08:12.003Z,77627.00
2022-08-22T09:09:11.908Z,77606.00
2022-08-22T09:10:11.867Z,77984.00
2022-08-22T09:11:12.096Z,78614.00
2022-08-22T09:12:11.849Z,78348.00
2022-08-22T09:13:12.974Z,76957.00
2022-08-22T09:14:11.846Z,76431.00
2022-08-22T09:15:14.226Z,77023.00
2022-08-22T09:16:14.831Z,77491.00
2022-08-22T09:17:11.817Z,77456.00
2022-08-22T09:18:11.791Z,77278.00
2022-08-22T09:19:11.779Z,77714.00
2022-08-22T09:20:17.539Z,78994.00
2022-08-22T09:21:11.831Z,79352.00
2022-08-22T09:22:14.576Z,78572.00
2022-08-22T09:23:11.742Z,77676.00
2022-08-22T09:24:11.755Z,77167.00
2022-08-22T09:25:11.731Z,76823.00
2022-08-22T09:26:11.723Z,76729.00
2022-08-22T09:28:11.680Z,79074.00
2022-08-22T09:29:11.665Z,80152.00
2022-08-22T09:30:11.938Z,80429.00
2022-08-22T09:31:16.928Z,80485.00
2022-08-22T09:32:12.973Z,81261.00
2022-08-22T09:33:11.627Z,82004.00
2022-08-22T09:34:11.611Z,80872.00
2022-08-22T09:35:11.596Z,82156.00
2022-08-22T09:36:12.392Z,81543.00
2022-08-22T09:38:11.597Z,80634.00
2022-08-22T09:39:11.571Z,80099.00
2022-08-22T09:41:11.530Z,79488.00
2022-08-22T09:43:11.528Z,80138.00
2022-08-22T09:44:12.088Z,80635.00
2022-08-22T09:45:11.496Z,80793.00
2022-08-22T09:46:14.488Z,80362.00
2022-08-22T09:47:11.510Z,80185.00
2022-08-22T09:48:11.485Z,80565.00
2022-08-22T09:49:11.485Z,81148.00
2022-08-22T09:50:11.462Z,81648.00
2022-08-22T09:51:31.664Z,81436.00
2022-08-22T09:52:15.646Z,81053.00
2022-08-22T09:53:12.474Z,81539.00
2022-08-22T09:54:11.407Z,82184.00
2022-08-22T09:55:15.875Z,81414.00
2022-08-22T09:56:15.338Z,80663.00
2022-08-22T09:57:14.028Z,81045.00
2022-08-22T09:58:11.606Z,81853.00
2022-08-22T09:59:11.347Z,82397.00
2022-08-22T10:00:11.353Z,81574.00
2022-08-22T10:01:14.364Z,80992.00
2022-08-22T10:02:15.709Z,80835.00
2022-08-22T10:03:11.308Z,81241.00
2022-08-22T10:04:11.299Z,81760.00
2022-08-22T10:05:11.309Z,82020.00
2022-08-22T10:06:12.283Z,82422.00
2022-08-22T10:07:12.202Z,81790.00
2022-08-22T10:08:11.550Z,81121.00
2022-08-22T10:09:11.253Z,81623.00
2022-08-22T10:10:11.375Z,81740.00
2022-08-22T10:11:11.262Z,82363.00
2022-08-22T10:12:12.260Z,82352.00
2022-08-22T10:13:11.203Z,81620.00
2022-08-22T10:14:11.192Z,82088.00
2022-08-22T10:15:12.183Z,81864.00
2022-08-22T10:16:14.197Z,81411.00
2022-08-22T10:17:11.218Z,81976.00
2022-08-22T10:18:11.154Z,81648.00
2022-08-22T10:19:11.154Z,81911.00
2022-08-22T10:20:11.144Z,82209.00
2022-08-22T10:21:11.116Z,82171.00
2022-08-22T10:22:11.124Z,81759.00
2022-08-22T10:23:11.322Z,81439.00
2022-08-22T10:24:11.089Z,82006.00
2022-08-22T10:25:12.076Z,81555.00
2022-08-22T10:26:11.068Z,81743.00
2022-08-22T10:27:11.068Z,82013.00
2022-08-22T10:28:11.148Z,80366.00
2022-08-22T10:29:11.057Z,82837.00
2022-08-22T10:30:11.028Z,82337.00
2022-08-22T10:31:14.010Z,81091.00
2022-08-22T10:32:14.604Z,79774.00
2022-08-22T10:33:12.188Z,79741.00
2022-08-22T10:34:10.981Z,80414.00
2022-08-22T10:35:10.973Z,81142.00
2022-08-22T10:36:12.026Z,81773.00
2022-08-22T10:37:10.952Z,81189.00
2022-08-22T10:38:10.956Z,73611.00
2022-08-22T10:39:11.894Z,28500.00
2022-08-22T10:40:11.059Z,9129.00
2022-08-22T10:41:10.914Z,13900.00
2022-08-22T10:42:10.897Z,13488.00
2022-08-22T10:43:10.902Z,75509.00
2022-08-22T10:44:11.002Z,75674.00
2022-08-22T10:45:10.878Z,65362.00
2022-08-22T10:46:14.909Z,9008.00
2022-08-22T10:47:10.866Z,82417.00
2022-08-22T10:48:10.837Z,69985.00
2022-08-22T10:49:11.574Z,12663.00
2022-08-22T10:50:11.528Z,79298.00
2022-08-22T10:51:10.810Z,78359.00
2022-08-22T10:52:15.840Z,77940.00
2022-08-22T10:53:10.786Z,77995.00
2022-08-22T10:54:10.780Z,78014.00
2022-08-22T10:55:10.777Z,79009.00
2022-08-22T10:56:10.757Z,80377.00
2022-08-22T10:57:10.762Z,81330.00
2022-08-22T10:58:10.771Z,81522.00
2022-08-22T10:59:10.723Z,81018.00
2022-08-22T11:00:10.715Z,80087.00
2022-08-22T11:01:37.845Z,78667.00
2022-08-22T11:02:11.716Z,76962.00
2022-08-22T11:03:14.131Z,75950.00
2022-08-22T11:04:12.286Z,76074.00
2022-08-22T11:05:10.667Z,76242.00
2022-08-22T11:06:12.782Z,76288.00
2022-08-22T11:07:10.634Z,76315.00
2022-08-22T11:08:10.634Z,76137.00
2022-08-22T11:09:10.666Z,76051.00
2022-08-22T11:10:10.610Z,75999.00
2022-08-22T11:11:10.622Z,75937.00
2022-08-22T11:12:10.599Z,76064.00
2022-08-22T11:13:10.583Z,76166.00
2022-08-22T11:14:10.570Z,77213.00
2022-08-22T11:15:10.989Z,78683.00
2022-08-22T11:16:13.554Z,79852.00
2022-08-22T11:17:28.799Z,79772.00
2022-08-22T11:18:12.996Z,70540.00
2022-08-22T11:19:15.397Z,11833.00
2022-08-22T11:20:10.510Z,61243.00
2022-08-22T11:21:10.497Z,16232.00
2022-08-22T11:22:10.482Z,7555.00
2022-08-22T11:23:12.511Z,75645.00
2022-08-22T11:24:17.180Z,75739.00
2022-08-22T11:25:11.469Z,75731.00
2022-08-22T11:26:11.455Z,76077.00
2022-08-22T11:27:12.987Z,77136.00
2022-08-22T11:28:10.474Z,78037.00
2022-08-22T11:29:13.825Z,77982.00
2022-08-22T11:30:10.408Z,58951.00
2022-08-22T11:31:13.406Z,75768.00
2022-08-22T11:32:10.403Z,59111.00
2022-08-22T11:33:10.365Z,5861.00
2022-08-22T11:34:10.367Z,77385.00
2022-08-22T11:35:10.390Z,75681.00
2022-08-22T11:36:10.338Z,75678.00
2022-08-22T11:37:11.493Z,75623.00
2022-08-22T11:38:11.103Z,75803.00
2022-08-22T11:39:18.347Z,76108.00
2022-08-22T11:40:11.681Z,76230.00
2022-08-22T11:41:10.288Z,76001.00
2022-08-22T11:42:10.280Z,75860.00
2022-08-22T11:43:11.987Z,59466.00
2022-08-22T11:44:10.254Z,14135.00
2022-08-22T11:45:11.646Z,10968.00
2022-08-22T11:46:13.234Z,12727.00
2022-08-22T11:47:10.254Z,75293.00
2022-08-22T11:48:10.209Z,75260.00
2022-08-22T11:49:10.228Z,75565.00
2022-08-22T11:50:13.716Z,75871.00
2022-08-22T11:51:13.257Z,76079.00
2022-08-22T11:52:10.175Z,76472.00
2022-08-22T11:53:10.172Z,77700.00
2022-08-22T11:54:10.177Z,78931.00
2022-08-22T11:55:10.146Z,80009.00
2022-08-22T11:56:10.451Z,81476.00
2022-08-22T11:57:10.128Z,80598.00
2022-08-22T11:58:10.118Z,77525.00
2022-08-22T11:59:10.188Z,75602.00
2022-08-22T12:00:10.086Z,75820.00
2022-08-22T12:01:17.269Z,77365.00
2022-08-22T12:02:10.130Z,78485.00
2022-08-22T12:03:10.060Z,79489.00
2022-08-22T12:04:10.186Z,79307.00
2022-08-22T12:05:10.039Z,78074.00
2022-08-22T12:06:10.029Z,75709.00
2022-08-22T12:07:10.033Z,75732.00
2022-08-22T12:08:11.258Z,75705.00
2022-08-22T12:09:09.995Z,75778.00
2022-08-22T12:10:13.789Z,76064.00
2022-08-22T12:11:09.983Z,75940.00
2022-08-22T12:12:09.963Z,75801.00
2022-08-22T12:13:09.969Z,78344.00
2022-08-22T12:14:09.943Z,79753.00
2022-08-22T12:15:09.959Z,80200.00
2022-08-22T12:16:12.935Z,80894.00
2022-08-22T12:17:09.925Z,81025.00
2022-08-22T12:18:10.897Z,81422.00
2022-08-22T12:19:09.887Z,81221.00
2022-08-22T12:20:17.047Z,82106.00
2022-08-22T12:21:09.909Z,81805.00
2022-08-22T12:22:09.867Z,80179.00
2022-08-22T12:23:09.848Z,77784.00
2022-08-22T12:24:11.328Z,76043.00
2022-08-22T12:25:09.819Z,76198.00
2022-08-22T12:26:10.941Z,76363.00
2022-08-22T12:27:09.815Z,60140.00
2022-08-22T12:28:09.820Z,6543.00
2022-08-22T12:29:15.641Z,76033.00
2022-08-22T12:30:13.772Z,76572.00
2022-08-22T12:31:12.767Z,75990.00
2022-08-22T12:32:10.170Z,75758.00
2022-08-22T12:33:09.770Z,75748.00
2022-08-22T12:34:09.763Z,75683.00
2022-08-22T12:35:13.810Z,75598.00
2022-08-22T12:36:17.776Z,75729.00
2022-08-22T12:37:09.703Z,75837.00
2022-08-22T12:38:28.149Z,76008.00
2022-08-22T12:39:10.725Z,76050.00
2022-08-22T12:40:09.712Z,75993.00
2022-08-22T12:41:09.665Z,75912.00
2022-08-22T12:42:10.658Z,76799.00
2022-08-22T12:43:09.637Z,77451.00
2022-08-22T12:44:12.567Z,77891.00
2022-08-22T12:45:09.638Z,78800.00
2022-08-22T12:46:13.024Z,78454.00
2022-08-22T12:47:09.619Z,76030.00
2022-08-22T12:48:09.597Z,75911.00
2022-08-22T12:49:09.594Z,76376.00
2022-08-22T12:50:09.573Z,79718.00
2022-08-22T12:51:17.211Z,81529.00
2022-08-22T12:52:09.551Z,79586.00
2022-08-22T12:53:09.558Z,77088.00
2022-08-22T12:54:09.531Z,75524.00
2022-08-22T12:56:10.213Z,76269.00
2022-08-22T12:57:10.549Z,77717.00
2022-08-22T12:58:09.495Z,77945.00
2022-08-22T12:59:09.500Z,76383.00
2022-08-22T13:00:09.490Z,75995.00
2022-08-22T13:01:12.538Z,76068.00
2022-08-22T13:02:09.468Z,77521.00
2022-08-22T13:03:09.614Z,79921.00
2022-08-22T13:04:09.437Z,80804.00
2022-08-22T13:05:10.437Z,81399.00
2022-08-22T13:06:13.768Z,82451.00
2022-08-22T13:07:09.389Z,82272.00
2022-08-22T13:08:09.627Z,81463.00
2022-08-22T13:09:09.958Z,79654.00
2022-08-22T13:10:09.363Z,78449.00
2022-08-22T13:11:09.944Z,77676.00
2022-08-22T13:12:09.343Z,78383.00
2022-08-22T13:13:12.245Z,80081.00
2022-08-22T13:14:18.212Z,81253.00
2022-08-22T13:15:10.911Z,81583.00
2022-08-22T13:16:12.311Z,81517.00
2022-08-22T13:17:10.703Z,82387.00
2022-08-22T13:18:28.669Z,81908.00
2022-08-22T13:19:13.785Z,81994.00
2022-08-22T13:20:09.298Z,82652.00
2022-08-22T13:21:13.974Z,80856.00
2022-08-22T13:22:09.251Z,79858.00
2022-08-22T13:23:12.439Z,79431.00
2022-08-22T13:24:10.515Z,79629.00
2022-08-22T13:25:09.236Z,80180.00
2022-08-22T13:26:09.208Z,81161.00
2022-08-22T13:27:10.205Z,82275.00
2022-08-22T13:28:09.188Z,80733.00
2022-08-22T13:29:25.651Z,80280.00
2022-08-22T13:30:12.475Z,80694.00
2022-08-22T13:31:12.178Z,81010.00
2022-08-22T13:32:09.160Z,81016.00
2022-08-22T13:33:09.129Z,80824.00
2022-08-22T13:34:09.131Z,81344.00
2022-08-22T13:35:09.141Z,82670.00
2022-08-22T13:36:10.954Z,81918.00
2022-08-22T13:37:10.097Z,81701.00
2022-08-22T13:38:12.125Z,81671.00
2022-08-22T13:39:09.073Z,81304.00
2022-08-22T13:40:09.295Z,82155.00
2022-08-22T13:41:09.054Z,82425.00
2022-08-22T13:42:14.538Z,81509.00
2022-08-22T13:43:09.064Z,81030.00
2022-08-22T13:44:09.031Z,80366.00
2022-08-22T13:45:09.067Z,80019.00
2022-08-22T13:46:12.013Z,80337.00
2022-08-22T13:47:14.690Z,80794.00
2022-08-22T13:48:09.068Z,80538.00
2022-08-22T13:49:08.988Z,80364.00
2022-08-22T13:50:09.120Z,80600.00
2022-08-22T13:51:08.964Z,80928.00
2022-08-22T13:52:14.508Z,81036.00
2022-08-22T13:53:09.949Z,81162.00
2022-08-22T13:54:11.077Z,81586.00
2022-08-22T13:55:12.628Z,81438.00
2022-08-22T13:56:15.978Z,81413.00
2022-08-22T13:57:08.903Z,82072.00
2022-08-22T13:58:11.338Z,82761.00
2022-08-22T13:59:09.688Z,82611.00
2022-08-22T14:00:10.030Z,81228.00
2022-08-22T14:01:12.927Z,79472.00
2022-08-22T14:02:15.146Z,79300.00
2022-08-22T14:03:09.645Z,80952.00
2022-08-22T14:04:28.502Z,82793.00
2022-08-22T14:05:09.814Z,81899.00
2022-08-22T14:06:35.367Z,81512.00
2022-08-22T14:07:09.855Z,81262.00
2022-08-22T14:08:12.463Z,81261.00
2022-08-22T14:09:08.788Z,81928.00
2022-08-22T14:10:15.271Z,82304.00
2022-08-22T14:11:08.765Z,82376.00
2022-08-22T14:12:12.203Z,81077.00
2022-08-22T14:13:08.745Z,79726.00
2022-08-22T14:14:08.739Z,80052.00
2022-08-22T14:15:08.717Z,80710.00
2022-08-22T14:16:11.708Z,81162.00
2022-08-22T14:17:08.711Z,81005.00
2022-08-22T14:18:08.722Z,80644.00
2022-08-22T14:19:08.684Z,80268.00
2022-08-22T14:20:11.101Z,79725.00
2022-08-22T14:21:09.664Z,79274.00
2022-08-22T14:22:08.652Z,78768.00
2022-08-22T14:23:08.845Z,78519.00
2022-08-22T14:24:08.630Z,78669.00
2022-08-22T14:25:08.640Z,79363.00
2022-08-22T14:26:08.613Z,80049.00
2022-08-22T14:27:08.594Z,79956.00
2022-08-22T14:28:09.383Z,78783.00
2022-08-22T14:29:08.594Z,77716.00
2022-08-22T14:30:08.575Z,76911.00
2022-08-22T14:31:13.716Z,77193.00
2022-08-22T14:32:08.756Z,77912.00
2022-08-22T14:33:08.555Z,78437.00
2022-08-22T14:34:08.683Z,78414.00
2022-08-22T14:35:10.756Z,78090.00
2022-08-22T14:36:08.526Z,77812.00
2022-08-22T14:37:08.513Z,77882.00
2022-08-22T14:38:17.097Z,78201.00
2022-08-22T14:39:08.487Z,78730.00